createdAt,value
2019-04-10T00:00:44.099Z,25.63
2019-04-10T00:03:25.506Z,25.63
2019-04-10T00:05:45.851Z,24.93
2019-04-10T00:08:15.649Z,26.70
2019-04-10T00:10:45.855Z,26.23
2019-04-10T00:13:15.521Z,27.23
2019-04-10T00:15:46.483Z,25.83
2019-04-10T00:18:16.653Z,27.43
2019-04-10T00:20:46.964Z,26.43
2019-04-10T00:23:17.360Z,27.80
2019-04-10T00:25:47.055Z,26.80
2019-04-10T00:28:17.043Z,27.60
2019-04-10T00:30:47.818Z,28.13
2019-04-10T00:33:18.844Z,27.47
2019-04-10T00:35:49.766Z,27.23
2019-04-10T00:38:20.092Z,27.17
2019-04-10T00:40:49.994Z,27.43
2019-04-10T00:43:19.569Z,27.63
2019-04-10T00:45:49.405Z,28.03
2019-04-10T00:48:19.651Z,28.33
2019-04-10T00:50:49.290Z,28.60
2019-04-10T00:53:19.210Z,27.20
2019-04-10T00:55:50.275Z,27.17
2019-04-10T00:58:20.417Z,27.53
2019-04-10T01:00:50.376Z,28.53
2019-04-10T01:03:38.300Z,27.83
2019-04-10T01:06:08.122Z,28.30
2019-04-10T01:08:37.860Z,28.60
2019-04-10T01:11:08.579Z,27.77
2019-04-10T01:13:41.171Z,27.67
2019-04-10T01:16:11.327Z,30.33
2019-04-10T01:18:41.595Z,29.17
2019-04-10T01:21:12.412Z,28.87
2019-04-10T01:23:42.081Z,29.70
2019-04-10T01:26:12.718Z,29.57
2019-04-10T01:28:42.384Z,29.27
2019-04-10T01:31:12.906Z,28.87
2019-04-10T01:33:43.019Z,29.13
2019-04-10T01:36:15.091Z,29.63
2019-04-10T01:38:44.776Z,30.17
2019-04-10T01:41:15.285Z,29.80
2019-04-10T01:43:45.058Z,30.67
2019-04-10T01:46:14.586Z,28.70
2019-04-10T01:48:44.310Z,29.33
2019-04-10T01:51:15.098Z,29.80
2019-04-10T01:53:44.834Z,28.43
2019-04-10T01:56:21.933Z,29.10
2019-04-10T01:58:47.692Z,29.80
2019-04-10T02:01:24.162Z,29.53
2019-04-10T02:03:54.346Z,28.60
2019-04-10T02:06:23.971Z,28.87
2019-04-10T02:08:54.208Z,28.90
2019-04-10T02:11:24.050Z,28.73
2019-04-10T02:13:53.997Z,27.97
2019-04-10T02:16:24.553Z,29.77
2019-04-10T02:18:55.120Z,29.43
2019-04-10T02:21:25.463Z,30.20
2019-04-10T02:23:55.223Z,29.83
2019-04-10T02:26:25.545Z,29.70
2019-04-10T02:28:55.589Z,29.73
2019-04-10T02:31:26.394Z,30.10
2019-04-10T02:33:58.051Z,31.03
2019-04-10T02:36:29.819Z,30.03
2019-04-10T02:39:12.116Z,30.40
2019-04-10T02:41:32.205Z,30.40
2019-04-10T02:44:02.907Z,30.03
2019-04-10T02:46:33.233Z,30.67
2019-04-10T02:49:04.056Z,29.20
2019-04-10T02:51:35.082Z,30.47
2019-04-10T02:54:05.714Z,30.87
2019-04-10T02:56:36.644Z,31.03
2019-04-10T02:59:07.317Z,29.50
2019-04-10T03:01:38.208Z,31.73
2019-04-10T03:04:09.775Z,31.60
2019-04-10T03:06:39.786Z,31.93
2019-04-10T03:09:27.737Z,34.03
2019-04-10T03:11:41.962Z,32.27
2019-04-10T03:14:14.768Z,34.30
2019-04-10T03:16:45.687Z,32.13
2019-04-10T03:19:15.454Z,32.83
2019-04-10T03:21:45.254Z,33.03
2019-04-10T03:24:14.964Z,32.53
2019-04-10T03:26:45.748Z,31.93
2019-04-10T03:29:15.752Z,33.00
2019-04-10T03:31:47.453Z,31.53
2019-04-10T03:34:33.139Z,33.20
2019-04-10T03:37:02.824Z,31.97
2019-04-10T03:39:35.871Z,32.43
2019-04-10T03:42:06.422Z,31.20
2019-04-10T03:44:36.362Z,34.10
2019-04-10T03:47:07.035Z,33.17
2019-04-10T03:49:36.815Z,33.90
2019-04-10T03:52:07.235Z,32.77
2019-04-10T03:54:37.905Z,33.13
2019-04-10T03:57:08.197Z,32.17
2019-04-10T03:59:40.018Z,32.27
2019-04-10T04:02:09.435Z,30.30
2019-04-10T04:04:41.822Z,31.00
2019-04-10T04:07:11.507Z,31.87
2019-04-10T04:09:41.855Z,31.83
2019-04-10T04:12:12.544Z,31.20
2019-04-10T04:14:42.367Z,30.97
2019-04-10T04:17:12.239Z,31.37
2019-04-10T04:19:42.114Z,31.33
2019-04-10T04:22:12.546Z,31.10
2019-04-10T04:24:42.421Z,32.07
2019-04-10T04:27:15.288Z,30.77
2019-04-10T04:29:45.402Z,30.67
2019-04-10T04:32:15.912Z,30.03
2019-04-10T04:34:45.628Z,30.70
2019-04-10T04:37:15.275Z,29.60
2019-04-10T04:39:45.316Z,28.80
2019-04-10T04:42:14.952Z,29.17
2019-04-10T04:44:45.386Z,30.13
2019-04-10T04:47:15.687Z,28.77
2019-04-10T04:49:46.661Z,29.80
2019-04-10T04:52:20.331Z,28.83
2019-04-10T04:54:50.089Z,28.33
2019-04-10T04:57:20.463Z,29.80
2019-04-10T04:59:50.511Z,27.43
2019-04-10T05:02:20.586Z,28.17
2019-04-10T05:04:50.126Z,29.17
2019-04-10T05:07:20.354Z,28.30
2019-04-10T05:09:50.464Z,27.97
2019-04-10T05:12:20.279Z,28.00
2019-04-10T05:14:50.261Z,29.60
2019-04-10T05:17:20.119Z,31.37
2019-04-10T05:19:50.340Z,30.40
2019-04-10T05:22:20.360Z,32.37
2019-04-10T05:24:50.050Z,31.80
2019-04-10T05:27:19.728Z,32.40
2019-04-10T05:29:50.496Z,31.43
2019-04-10T05:32:21.335Z,30.53
2019-04-10T05:34:52.375Z,30.23
2019-04-10T05:37:23.076Z,32.43
2019-04-10T05:39:53.935Z,31.33
2019-04-10T05:42:24.816Z,30.73
2019-04-10T05:44:54.516Z,31.60
2019-04-10T05:47:24.411Z,30.80
2019-04-10T05:49:53.985Z,30.67
2019-04-10T05:52:23.821Z,31.90
2019-04-10T05:54:53.389Z,32.00
2019-04-10T05:57:26.759Z,31.60
2019-04-10T05:59:58.462Z,31.27
2019-04-10T06:02:28.267Z,31.10
2019-04-10T06:04:58.158Z,31.47
2019-04-10T06:07:27.819Z,31.27
2019-04-10T06:10:04.361Z,31.07
2019-04-10T06:12:30.613Z,31.63
2019-04-10T06:15:00.332Z,30.03
2019-04-10T06:17:32.276Z,30.83
2019-04-10T06:20:02.821Z,29.63
2019-04-10T06:22:34.763Z,29.17
2019-04-10T06:25:06.545Z,29.33
2019-04-10T06:27:36.723Z,28.50
2019-04-10T06:30:07.877Z,28.47
2019-04-10T06:32:39.752Z,28.87
2019-04-10T06:35:12.036Z,28.60
2019-04-10T06:37:42.240Z,27.60
2019-04-10T06:40:18.662Z,25.90
2019-04-10T06:42:51.605Z,28.33
2019-04-10T06:45:17.756Z,28.43
2019-04-10T06:47:48.654Z,29.23
2019-04-10T06:50:18.977Z,27.77
2019-04-10T06:52:49.259Z,24.30
2019-04-10T06:55:19.174Z,25.47
2019-04-10T06:57:55.774Z,24.73
2019-04-10T07:00:21.406Z,25.37
2019-04-10T07:02:52.598Z,27.35
2019-04-10T07:05:36.605Z,25.70
2019-04-10T07:08:09.153Z,24.83
2019-04-10T07:10:39.562Z,23.70
2019-04-10T07:13:04.294Z,22.63
2019-04-10T07:15:33.530Z,22.20
2019-04-10T07:18:03.243Z,21.47
2019-04-10T07:20:33.675Z,21.53
2019-04-10T07:23:03.650Z,21.10
2019-04-10T07:25:33.189Z,20.83
2019-04-10T07:28:05.259Z,19.93
2019-04-10T07:30:34.177Z,19.47
2019-04-10T07:33:07.562Z,19.70
2019-04-10T07:35:38.368Z,20.27
2019-04-10T07:38:08.069Z,20.30
2019-04-10T07:40:38.734Z,19.20
2019-04-10T07:43:08.777Z,18.37
2019-04-10T07:45:38.562Z,18.90
2019-04-10T07:48:08.794Z,18.87
2019-04-10T07:50:39.085Z,19.67
2019-04-10T07:53:08.723Z,17.90
2019-04-10T07:55:39.741Z,17.80
2019-04-10T07:58:11.516Z,17.20
2019-04-10T08:00:41.483Z,16.43
2019-04-10T08:03:14.669Z,17.30
2019-04-10T08:05:45.968Z,17.80
2019-04-10T08:08:17.157Z,17.53
2019-04-10T08:10:48.721Z,16.57
2019-04-10T08:13:20.453Z,17.90
2019-04-10T08:15:50.315Z,18.27
2019-04-10T08:18:23.334Z,17.97
2019-04-10T08:20:53.179Z,17.93
2019-04-10T08:23:23.916Z,18.07
2019-04-10T08:25:53.979Z,18.02
2019-04-10T08:28:24.075Z,18.70
2019-04-10T08:30:54.671Z,18.27
2019-04-10T08:33:25.936Z,17.63
2019-04-10T08:35:56.915Z,17.97
2019-04-10T08:38:28.043Z,17.87
2019-04-10T08:41:00.642Z,17.37
2019-04-10T08:43:31.243Z,18.20
2019-04-10T08:46:03.392Z,18.13
2019-04-10T08:48:35.840Z,19.23
2019-04-10T08:51:06.575Z,17.73
2019-04-10T08:53:36.338Z,18.27
2019-04-10T08:56:06.548Z,17.10
2019-04-10T08:58:36.483Z,19.43
2019-04-10T09:01:07.189Z,17.47
2019-04-10T09:03:39.885Z,17.70
2019-04-10T09:06:11.630Z,17.30
2019-04-10T09:08:41.959Z,17.33
2019-04-10T09:11:11.812Z,17.10
2019-04-10T09:13:41.416Z,17.73
2019-04-10T09:16:12.138Z,17.33
2019-04-10T09:18:41.910Z,17.33
2019-04-10T09:21:11.554Z,16.73
2019-04-10T09:23:48.253Z,16.80
2019-04-10T09:26:15.908Z,16.53
2019-04-10T09:28:46.613Z,17.67
2019-04-10T09:31:19.774Z,17.60
2019-04-10T09:33:49.905Z,17.50
2019-04-10T09:36:19.915Z,16.87
2019-04-10T09:38:50.687Z,16.10
2019-04-10T09:41:21.607Z,18.00
2019-04-10T09:43:51.535Z,17.00
2019-04-10T09:46:21.372Z,15.87
2019-04-10T09:48:51.978Z,16.33
2019-04-10T09:51:21.809Z,16.63
2019-04-10T09:53:51.686Z,15.97
2019-04-10T09:56:21.932Z,16.70
2019-04-10T09:58:51.885Z,15.63
2019-04-10T10:01:22.050Z,15.97
2019-04-10T10:03:52.790Z,16.67
2019-04-10T10:06:29.581Z,16.80
2019-04-10T10:08:54.565Z,16.57
2019-04-10T10:11:24.364Z,16.77
2019-04-10T10:13:54.295Z,16.20
2019-04-10T10:16:25.372Z,15.70
2019-04-10T10:18:55.459Z,15.33
2019-04-10T10:21:26.865Z,15.97
2019-04-10T10:23:58.137Z,15.63
2019-04-10T10:26:30.085Z,15.80
2019-04-10T10:29:00.691Z,16.17
2019-04-10T10:31:30.666Z,15.90
2019-04-10T10:34:01.846Z,15.07
2019-04-10T10:36:39.331Z,14.93
2019-04-10T10:39:11.221Z,15.87
2019-04-10T10:41:40.600Z,15.57
2019-04-10T10:44:11.029Z,15.50
2019-04-10T10:46:41.839Z,16.13
2019-04-10T10:49:12.556Z,14.73
2019-04-10T10:51:42.659Z,14.20
2019-04-10T10:54:12.604Z,15.70
2019-04-10T10:56:42.621Z,14.60
2019-04-10T10:59:13.369Z,15.87
2019-04-10T11:01:44.199Z,15.40
2019-04-10T11:04:16.809Z,15.40
2019-04-10T11:06:54.053Z,15.90
2019-04-10T11:09:19.696Z,14.77
2019-04-10T11:11:50.364Z,14.40
2019-04-10T11:14:21.483Z,13.87
2019-04-10T11:16:51.625Z,13.90
2019-04-10T11:19:21.971Z,13.33
2019-04-10T11:21:51.629Z,13.33
2019-04-10T11:24:22.824Z,13.90
2019-04-10T11:26:54.034Z,14.30
2019-04-10T11:29:25.100Z,15.07
2019-04-10T11:31:55.637Z,14.70
2019-04-10T11:34:26.510Z,15.37
2019-04-10T11:37:16.614Z,14.67
2019-04-10T11:39:33.029Z,13.83
2019-04-10T11:42:06.548Z,13.77
2019-04-10T11:44:36.687Z,14.27
2019-04-10T11:47:10.483Z,14.50
2019-04-10T11:49:44.354Z,13.63
2019-04-10T11:52:14.489Z,14.57
2019-04-10T11:54:44.935Z,13.27
2019-04-10T11:57:16.641Z,13.63
2019-04-10T11:59:49.531Z,13.73
2019-04-10T12:02:21.815Z,14.07
2019-04-10T12:04:55.975Z,13.77
2019-04-10T12:07:52.692Z,14.57
2019-04-10T12:12:26.403Z,14.97
2019-04-10T12:14:56.228Z,14.60
2019-04-10T12:17:27.611Z,13.63
2019-04-10T12:19:57.607Z,13.83
2019-04-10T12:22:27.507Z,15.47
2019-04-10T12:24:58.449Z,14.77
2019-04-10T12:27:29.304Z,15.63
2019-04-10T12:29:59.377Z,15.70
2019-04-10T12:32:29.185Z,13.80
2019-04-10T12:35:00.306Z,14.73
2019-04-10T12:37:31.065Z,14.10
2019-04-10T12:40:01.425Z,14.87
2019-04-10T12:42:35.238Z,14.07
2019-04-10T12:45:08.289Z,15.83
2019-04-10T12:47:39.784Z,14.90
2019-04-10T12:50:12.054Z,15.40
2019-04-10T12:52:42.882Z,15.03
2019-04-10T12:55:12.889Z,14.63
2019-04-10T12:57:43.437Z,14.87
2019-04-10T13:00:18.357Z,14.33
2019-04-10T13:02:48.176Z,14.30
2019-04-10T13:05:18.874Z,14.97
2019-04-10T13:07:50.199Z,15.37
2019-04-10T13:10:20.459Z,13.97
2019-04-10T13:12:50.693Z,14.10
2019-04-10T13:15:21.364Z,15.07
2019-04-10T13:17:53.105Z,15.50
2019-04-10T13:20:24.027Z,14.17
2019-04-10T13:22:54.176Z,14.33
2019-04-10T13:25:26.299Z,15.33
2019-04-10T13:27:56.525Z,16.00
2019-04-10T13:30:27.046Z,14.97
2019-04-10T13:32:58.228Z,15.00
2019-04-10T13:35:28.394Z,15.13
2019-04-10T13:37:58.951Z,15.27
2019-04-10T13:40:29.902Z,15.23
2019-04-10T13:43:01.322Z,14.47
2019-04-10T13:45:31.284Z,15.07
2019-04-10T13:48:02.048Z,14.53
2019-04-10T13:50:32.739Z,14.00
2019-04-10T13:53:09.966Z,15.07
2019-04-10T13:55:42.419Z,14.43
2019-04-10T13:58:12.419Z,14.33
2019-04-10T14:00:43.077Z,15.10
2019-04-10T14:03:14.539Z,14.87
2019-04-10T14:05:49.432Z,15.43
2019-04-10T14:08:19.364Z,14.27
2019-04-10T14:10:50.607Z,15.17
2019-04-10T14:13:21.959Z,15.23
2019-04-10T14:15:53.239Z,14.37
2019-04-10T14:18:24.086Z,13.57
2019-04-10T14:20:55.282Z,13.77
2019-04-10T14:23:29.788Z,14.23
2019-04-10T14:26:11.937Z,14.10
2019-04-10T14:28:41.349Z,13.73
2019-04-10T14:31:21.873Z,14.50
2019-04-10T14:33:51.589Z,14.87
2019-04-10T14:36:22.430Z,14.30
2019-04-10T14:38:52.429Z,14.60
2019-04-10T14:41:24.683Z,14.27
2019-04-10T14:43:55.600Z,14.13
2019-04-10T14:46:26.290Z,13.47
2019-04-10T14:48:56.592Z,13.77
2019-04-10T14:51:30.362Z,13.33
2019-04-10T14:54:01.700Z,13.97
2019-04-10T14:56:32.451Z,13.87
2019-04-10T14:59:02.416Z,12.67
2019-04-10T15:01:35.895Z,12.13
2019-04-10T15:04:06.274Z,11.83
2019-04-10T15:06:36.141Z,12.23
2019-04-10T15:09:23.155Z,11.90
2019-04-10T15:11:48.930Z,12.17
2019-04-10T15:14:19.391Z,12.80
2019-04-10T15:16:59.527Z,13.47
2019-04-10T15:19:26.821Z,13.13
2019-04-10T15:21:56.888Z,13.57
2019-04-10T15:24:27.831Z,12.73
2019-04-10T15:26:58.760Z,13.03
2019-04-10T15:29:28.502Z,12.03
2019-04-10T15:31:59.994Z,11.90
2019-04-10T15:34:30.260Z,13.07
2019-04-10T15:37:02.543Z,12.30
2019-04-10T15:39:37.083Z,13.33
2019-04-10T15:42:06.159Z,13.03
2019-04-10T15:44:40.717Z,13.07
2019-04-10T15:47:18.290Z,13.43
2019-04-10T15:49:46.839Z,12.77
2019-04-10T15:52:17.582Z,13.63
2019-04-10T15:54:48.323Z,11.30
2019-04-10T15:57:18.478Z,11.30
2019-04-10T15:59:54.621Z,10.97
2019-04-10T16:02:25.782Z,10.40
2019-04-10T16:04:57.272Z,10.67
2019-04-10T16:07:28.848Z,10.53
2019-04-10T16:10:08.526Z,10.93
2019-04-10T16:12:45.748Z,11.03
2019-04-10T16:15:17.391Z,12.70
2019-04-10T16:17:55.158Z,11.80
2019-04-10T16:20:29.863Z,11.93
2019-04-10T16:23:18.467Z,13.30
2019-04-10T16:25:52.279Z,12.50
2019-04-10T16:28:23.850Z,12.87
2019-04-10T16:31:03.361Z,12.97
2019-04-10T16:33:35.778Z,12.63
2019-04-10T16:36:08.553Z,13.00
2019-04-10T16:38:39.180Z,12.87
2019-04-10T16:41:10.176Z,12.63
2019-04-10T16:43:40.433Z,13.07
2019-04-10T16:46:13.271Z,12.73
2019-04-10T16:48:46.275Z,12.23
2019-04-10T16:51:20.434Z,12.97
2019-04-10T16:53:51.701Z,12.53
2019-04-10T16:56:31.832Z,13.47
2019-04-10T16:59:02.738Z,12.13
2019-04-10T17:01:33.711Z,12.40
2019-04-10T17:04:04.839Z,12.03
2019-04-10T17:06:44.231Z,13.33
2019-04-10T17:09:20.724Z,11.87
2019-04-10T17:11:51.408Z,12.40
2019-04-10T17:14:39.783Z,11.73
2019-04-10T17:17:13.176Z,11.40
2019-04-10T17:19:48.756Z,12.30
2019-04-10T17:22:30.877Z,12.53
2019-04-10T17:24:53.684Z,11.10
2019-04-10T17:27:25.726Z,12.13
2019-04-10T17:29:56.945Z,12.97
2019-04-10T17:32:31.015Z,11.47
2019-04-10T17:35:03.155Z,12.87
2019-04-10T17:37:33.940Z,10.73
2019-04-10T17:40:06.201Z,12.10
2019-04-10T17:42:37.727Z,11.83
2019-04-10T17:45:10.111Z,12.93
2019-04-10T17:47:56.505Z,12.37
2019-04-10T17:50:32.305Z,10.90
2019-04-10T17:53:05.124Z,12.27
2019-04-10T17:55:35.743Z,11.57
2019-04-10T17:58:07.408Z,11.47
2019-04-10T18:00:43.182Z,10.83
2019-04-10T18:03:19.859Z,11.23
2019-04-10T18:05:50.936Z,11.27
2019-04-10T18:08:26.674Z,10.90
2019-04-10T18:10:56.948Z,11.83
2019-04-10T18:13:28.728Z,10.67
2019-04-10T18:16:02.463Z,11.10
2019-04-10T18:18:35.870Z,10.53
2019-04-10T18:21:06.765Z,11.47
2019-04-10T18:23:37.965Z,11.13
2019-04-10T18:26:11.494Z,11.70
2019-04-10T18:28:46.724Z,11.10
2019-04-10T18:31:29.809Z,11.00
2019-04-10T18:34:00.841Z,11.03
2019-04-10T18:36:31.960Z,11.40
2019-04-10T18:39:12.484Z,10.63
2019-04-10T18:41:42.273Z,11.33
2019-04-10T18:47:20.625Z,11.73
2019-04-10T18:49:51.759Z,11.47
2019-04-10T18:52:25.405Z,11.60
2019-04-10T18:54:57.043Z,11.07
2019-04-10T18:57:29.599Z,11.40
2019-04-10T19:00:21.810Z,11.07
2019-04-10T19:03:01.348Z,12.17
2019-04-10T19:05:38.413Z,11.40
2019-04-10T19:08:15.684Z,11.87
2019-04-10T19:10:47.950Z,11.53
2019-04-10T19:13:26.701Z,12.40
2019-04-10T19:15:59.686Z,11.57
2019-04-10T19:18:37.557Z,12.30
2019-04-10T19:21:08.292Z,11.70
2019-04-10T19:23:57.536Z,11.17
2019-04-10T19:26:33.525Z,12.27
2019-04-10T19:29:09.559Z,12.57
2019-04-10T19:31:48.854Z,11.90
2019-04-10T19:34:25.420Z,12.10
2019-04-10T19:37:06.129Z,12.37
2019-04-10T19:39:38.377Z,12.17
2019-04-10T19:42:09.603Z,11.50
2019-04-10T19:44:41.393Z,11.57
2019-04-10T19:47:12.789Z,11.87
2019-04-10T19:49:44.618Z,12.43
2019-04-10T19:52:16.014Z,11.67
2019-04-10T19:54:51.315Z,11.73
2019-04-10T19:57:23.456Z,12.03
2019-04-10T19:59:57.863Z,11.67
2019-04-10T20:02:35.424Z,11.67
2019-04-10T20:05:07.381Z,12.13
2019-04-10T20:07:43.068Z,12.03
2019-04-10T20:10:15.294Z,10.97
2019-04-10T20:12:45.771Z,10.90
2019-04-10T20:15:16.592Z,11.07
2019-04-10T20:17:48.289Z,10.73
2019-04-10T20:20:23.462Z,11.43
2019-04-10T20:22:55.526Z,11.27
2019-04-10T20:25:26.449Z,11.87
2019-04-10T20:27:58.498Z,11.83
2019-04-10T20:30:31.122Z,11.37
2019-04-10T20:33:02.758Z,10.83
2019-04-10T20:35:36.271Z,10.97
2019-04-10T20:38:07.672Z,12.13
2019-04-10T20:40:38.454Z,10.93
2019-04-10T20:43:09.089Z,11.20
2019-04-10T20:45:40.517Z,11.57
2019-04-10T20:48:12.061Z,11.23
2019-04-10T20:50:43.893Z,11.17
2019-04-10T20:53:15.790Z,11.43
2019-04-10T20:55:51.457Z,12.33
2019-04-10T20:58:22.702Z,10.67
2019-04-10T21:00:53.021Z,11.63
2019-04-10T21:03:25.278Z,11.33
2019-04-10T21:05:56.402Z,10.93
2019-04-10T21:08:27.512Z,10.30
2019-04-10T21:10:59.082Z,11.17
2019-04-10T21:13:34.013Z,10.83
2019-04-10T21:16:05.281Z,10.60
2019-04-10T21:18:51.876Z,10.50
2019-04-10T21:21:22.243Z,11.30
2019-04-10T21:23:56.484Z,10.53
2019-04-10T21:26:34.662Z,10.90
2019-04-10T21:29:06.745Z,10.40
2019-04-10T21:31:58.916Z,11.73
2019-04-10T21:34:35.371Z,10.33
2019-04-10T21:37:06.409Z,11.60
2019-04-10T21:39:38.064Z,11.00
2019-04-10T21:42:19.584Z,11.17
2019-04-10T21:44:44.999Z,10.97
2019-04-10T21:47:19.401Z,11.30
2019-04-10T21:49:53.299Z,10.90
2019-04-10T21:52:23.355Z,11.20
2019-04-10T21:54:58.639Z,11.60
2019-04-10T21:57:27.288Z,10.63
2019-04-10T21:59:59.507Z,10.63
2019-04-10T22:02:31.541Z,11.17
2019-04-10T22:05:03.830Z,11.33
2019-04-10T22:07:58.785Z,11.27
2019-04-10T22:10:34.173Z,10.20
2019-04-10T22:13:04.031Z,12.00
2019-04-10T22:15:43.319Z,11.90
2019-04-10T22:18:12.959Z,11.63
2019-04-10T22:20:43.682Z,11.10
2019-04-10T22:23:17.994Z,12.13
2019-04-10T22:25:50.150Z,11.67
2019-04-10T22:28:25.268Z,10.90
2019-04-10T22:30:55.735Z,11.57
2019-04-10T22:33:32.095Z,11.40
2019-04-10T22:36:02.557Z,11.73
2019-04-10T22:38:35.597Z,11.43
2019-04-10T22:41:19.535Z,11.30
2019-04-10T22:43:38.696Z,11.23
2019-04-10T22:46:08.823Z,11.20
2019-04-10T22:48:40.239Z,11.43
2019-04-10T22:51:11.183Z,10.90
2019-04-10T22:53:41.755Z,11.53
2019-04-10T22:56:15.667Z,10.80
2019-04-10T22:58:45.623Z,11.60
2019-04-10T23:01:15.517Z,12.40
2019-04-10T23:03:47.861Z,12.17
2019-04-10T23:06:21.501Z,11.77
2019-04-10T23:08:52.142Z,11.60
2019-04-10T23:11:38.398Z,11.47
2019-04-10T23:14:00.589Z,11.30
2019-04-10T23:16:36.640Z,11.47
2019-04-10T23:19:09.938Z,11.53
2019-04-10T23:21:40.879Z,11.17
2019-04-10T23:24:11.762Z,12.00
2019-04-10T23:26:47.410Z,12.17
2019-04-10T23:29:17.182Z,11.77
2019-04-10T23:31:47.938Z,11.30
2019-04-10T23:34:18.883Z,11.13
2019-04-10T23:36:51.484Z,10.60
2019-04-10T23:39:21.859Z,11.47
2019-04-10T23:41:57.263Z,11.93
2019-04-10T23:44:29.116Z,11.27
2019-04-10T23:47:04.900Z,10.30
2019-04-10T23:49:35.341Z,11.50
2019-04-10T23:52:05.473Z,11.63
2019-04-10T23:54:37.424Z,11.80
2019-04-10T23:57:11.769Z,11.77
2019-04-10T23:59:44.646Z,12.20
